Time;durP1;ratioP1;P1;durP2;ratioP2;P2;SDS_P1;SDS_P2;PMS_P1;PMS_P2;Temp;Humidity;BMP_temperature;BMP_pressure;BME280_temperature;BME280_humidity;BME280_pressure;Samples;Min_cycle;Max_cycle;Signal;HPM_P1;HPM_P2
2021/09/14 00:00:32;;;;;;;0.53;0.40;;;;;;;8.90;72.23;101339.50;5031184;28;20205;-68
2021/09/14 00:03:00;;;;;;;1.63;0.60;;;;;;;8.93;72.29;101342.88;5031218;28;20622;-68
2021/09/14 00:05:28;;;;;;;0.60;0.60;;;;;;;8.88;71.94;101342.25;5029950;28;20206;-68
2021/09/14 00:07:58;;;;;;;1.33;0.40;;;;;;;8.85;72.15;101344.19;5030810;28;20198;-69
2021/09/14 00:10:26;;;;;;;0.60;0.50;;;;;;;8.81;72.19;101340.81;5031179;28;20625;-67
2021/09/14 00:12:54;;;;;;;0.57;0.57;;;;;;;8.41;72.19;101277.72;5045807;28;20698;-67
2021/09/14 00:15:22;;;;;;;2.17;0.53;;;;;;;8.72;72.11;101338.59;5031074;28;20205;-68
2021/09/14 00:17:50;;;;;;;0.50;0.50;;;;;;;8.67;72.33;101335.31;5030981;28;20260;-67
2021/09/14 00:20:18;;;;;;;0.50;0.50;;;;;;;8.66;72.47;101331.75;5031101;28;20240;-67
2021/09/14 00:22:46;;;;;;;1.00;0.60;;;;;;;8.65;72.34;101342.53;5030644;28;20722;-68
2021/09/14 00:25:15;;;;;;;3.33;0.70;;;;;;;8.65;72.52;101335.38;5030169;28;20262;-68
2021/09/14 00:27:44;;;;;;;2.73;0.30;;;;;;;8.62;72.46;101332.00;5030809;28;20510;-67
2021/09/14 00:30:12;;;;;;;0.77;0.53;;;;;;;8.63;72.35;101329.25;5030524;28;20201;-67
2021/09/14 00:32:41;;;;;;;0.43;0.43;;;;;;;8.64;72.17;101330.97;5030894;28;20647;-67
2021/09/14 00:35:10;;;;;;;0.50;0.50;;;;;;;8.65;71.96;101335.38;5030261;28;20203;-67
2021/09/14 00:37:38;;;;;;;3.03;0.50;;;;;;;8.65;72.03;101326.47;5030770;28;20650;-67
2021/09/14 00:40:08;;;;;;;1.30;0.70;;;;;;;8.39;72.17;101292.97;5029939;28;20194;-67
2021/09/14 00:42:37;;;;;;;2.10;0.53;;;;;;;8.58;72.75;101335.78;5030637;28;20202;-68
2021/09/14 00:45:07;;;;;;;0.50;0.50;;;;;;;8.52;72.59;101328.03;5044244;28;20624;-68
2021/09/14 00:47:35;;;;;;;0.40;0.40;;;;;;;8.21;72.50;101285.81;5030395;28;20198;-68
2021/09/14 00:50:05;;;;;;;0.40;0.40;;;;;;;8.49;72.78;101328.19;5022693;28;20203;-66
2021/09/14 00:52:34;;;;;;;49.90;44.83;;;;;;;8.48;72.63;101340.69;5029048;28;20214;-67
2021/09/14 00:55:03;;;;;;;843.47;455.20;;;;;;;8.35;72.82;101302.97;5029894;28;20194;-67
2021/09/14 00:57:31;;;;;;;113.60;53.77;;;;;;;8.50;72.48;101329.91;5028739;28;20633;-67
2021/09/14 01:00:00;;;;;;;19.40;13.63;;;;;;;8.49;72.57;101331.72;5029974;28;20549;-67
2021/09/14 01:02:28;;;;;;;14.83;10.57;;;;;;;8.49;72.90;101326.38;5016787;28;20609;-67
2021/09/14 01:04:57;;;;;;;9.13;6.77;;;;;;;8.50;72.81;101325.41;5017938;28;20206;-67
2021/09/14 01:07:26;;;;;;;2.13;1.67;;;;;;;8.30;72.77;101294.28;5026392;28;20218;-67
2021/09/14 01:09:55;;;;;;;1.80;1.70;;;;;;;8.40;72.90;101317.00;5036291;28;20201;-67
2021/09/14 01:12:24;;;;;;;2.10;1.70;;;;;;;8.50;72.60;101328.09;5024952;28;20217;-68
2021/09/14 01:14:53;;;;;;;1.10;1.00;;;;;;;8.42;72.34;101332.97;5014295;28;20714;-68
2021/09/14 01:17:22;;;;;;;1.10;1.00;;;;;;;8.27;72.60;101318.53;5028366;28;20673;-68
2021/09/14 01:19:54;;;;;;;6.57;1.33;;;;;;;8.39;72.57;101343.84;5036662;28;20233;-67
2021/09/14 01:22:27;;;;;;;0.90;0.90;;;;;;;8.38;72.30;101342.97;5027414;28;20234;-68
2021/09/14 01:24:57;;;;;;;4.33;1.10;;;;;;;8.35;72.53;101343.13;5044566;28;20214;-67
2021/09/14 01:27:25;;;;;;;0.93;0.93;;;;;;;8.33;72.82;101345.00;5044639;28;20575;-67
2021/09/14 01:30:13;;;;;;;2.53;2.33;;;;;;;8.05;72.98;101307.97;5044715;28;20210;-67
2021/09/14 01:32:44;;;;;;;1.90;0.83;;;;;;;8.30;72.85;101344.25;5028008;28;20851;-67
2021/09/14 01:35:16;;;;;;;0.87;0.63;;;;;;;8.28;72.34;101355.03;5032105;28;20632;-68
2021/09/14 01:37:51;;;;;;;0.70;0.70;;;;;;;8.08;72.21;101320.34;5030509;28;20202;-68
2021/09/14 01:40:20;;;;;;;0.67;0.67;;;;;;;8.22;72.61;101349.09;5019677;28;20209;-67
2021/09/14 01:42:53;;;;;;;0.50;0.50;;;;;;;8.18;72.56;101350.19;5044055;28;20290;-68
2021/09/14 01:45:21;;;;;;;0.60;0.60;;;;;;;8.16;72.42;101347.59;5043813;28;20557;-68
2021/09/14 01:47:50;;;;;;;2.43;0.77;;;;;;;8.14;72.40;101346.78;5044256;28;20448;-69
2021/09/14 01:50:20;;;;;;;0.57;0.50;;;;;;;8.13;72.71;101342.38;5044503;28;20420;-68
2021/09/14 01:52:49;;;;;;;0.40;0.40;;;;;;;8.11;72.71;101344.25;5044053;28;20601;-67
2021/09/14 01:55:19;;;;;;;1.40;0.70;;;;;;;8.03;72.43;101341.09;5044536;28;20209;-68
2021/09/14 01:57:50;;;;;;;0.53;0.50;;;;;;;7.99;72.56;101355.56;5044053;28;20211;-68
2021/09/14 02:00:22;;;;;;;0.40;0.40;;;;;;;7.90;72.96;101342.59;5029089;28;20659;-68
2021/09/14 02:39:52;;;;;;;0.33;0.33;;;;;;;7.71;72.93;101340.81;5030114;28;20202;-67
2021/09/14 02:42:34;;;;;;;4.33;0.60;;;;;;;7.62;73.51;101341.22;5043648;28;20212;-68
2021/09/14 02:58:56;;;;;;;1.80;0.50;;;;;;;7.73;74.11;101333.56;4985450;28;20233;-67
2021/09/14 03:01:24;;;;;;;3.03;0.70;;;;;;;7.74;73.58;101337.13;5030936;28;20679;-68
2021/09/14 03:03:54;;;;;;;34.83;18.47;;;;;;;7.62;73.82;101333.19;5031139;28;20730;-67
2021/09/14 03:06:23;;;;;;;64.50;38.67;;;;;;;7.62;74.00;101333.19;5047610;28;20207;-67
2021/09/14 03:08:56;;;;;;;26.93;15.43;;;;;;;7.62;74.04;101341.22;5030571;28;20682;-67
2021/09/14 03:11:26;;;;;;;11.87;5.97;;;;;;;7.57;74.60;101334.34;5018389;28;20271;-68
2021/09/14 03:14:01;;;;;;;9.70;3.83;;;;;;;7.56;74.92;101341.50;5025702;28;20280;-68
2021/09/14 03:16:32;;;;;;;7.13;2.20;;;;;;;7.31;74.54;101319.47;5042239;28;20228;-68
2021/09/14 03:19:01;;;;;;;3.87;3.47;;;;;;;7.51;74.86;101343.50;5046710;28;20225;-68
2021/09/14 03:21:29;;;;;;;1.50;1.40;;;;;;;7.55;74.27;101341.56;5026802;28;20237;-68
2021/09/14 03:23:57;;;;;;;2.43;2.23;;;;;;;7.55;74.35;101338.88;5045342;28;20569;-68
2021/09/14 03:26:26;;;;;;;4.83;1.87;;;;;;;7.53;74.01;101349.66;5026460;28;20233;-68
2021/09/14 03:28:54;;;;;;;2.50;2.30;;;;;;;7.54;73.94;101346.03;5045895;28;20669;-68
2021/09/14 03:31:24;;;;;;;3.13;2.40;;;;;;;7.62;74.11;101340.34;5030037;28;20206;-68
2021/09/14 03:33:54;;;;;;;1.17;1.07;;;;;;;7.68;74.20;101348.09;5043620;28;20232;-69
2021/09/14 03:36:23;;;;;;;0.70;0.70;;;;;;;7.69;73.56;101348.03;5045934;28;20468;-68
2021/09/14 03:38:52;;;;;;;6.40;5.80;;;;;;;7.76;73.78;101351.28;5046434;28;20301;-68
2021/09/14 03:41:20;;;;;;;0.50;0.50;;;;;;;7.73;73.60;101356.78;5035092;28;20226;-68
2021/09/14 03:43:48;;;;;;;0.77;0.77;;;;;;;7.68;73.66;101365.00;5037322;28;20756;-68
2021/09/14 03:46:17;;;;;;;0.83;0.60;;;;;;;7.61;73.14;101357.31;5023770;28;20203;-68
2021/09/14 03:48:46;;;;;;;2.73;0.50;;;;;;;7.50;73.49;101357.81;5038624;28;20202;-68
2021/09/14 03:51:15;;;;;;;2.97;0.80;;;;;;;7.50;73.85;101376.50;5046039;28;20590;-68
2021/09/14 03:53:44;;;;;;;0.70;0.70;;;;;;;7.50;73.57;101370.31;5028319;28;20236;-67
2021/09/14 03:56:12;;;;;;;0.77;0.77;;;;;;;7.50;73.75;101367.63;5029125;28;20209;-67
2021/09/14 03:58:41;;;;;;;0.70;0.70;;;;;;;7.50;73.92;101367.63;5029339;28;20210;-68
2021/09/14 04:01:09;;;;;;;1.57;0.60;;;;;;;7.40;73.89;101375.19;5028397;28;20218;-67
2021/09/14 04:03:41;;;;;;;0.63;0.50;;;;;;;7.26;73.74;101374.94;5029421;28;20212;-68
2021/09/14 04:06:36;;;;;;;0.53;0.53;;;;;;;7.15;74.05;101349.56;5045268;28;20215;-67
2021/09/14 04:09:05;;;;;;;0.60;0.60;;;;;;;7.28;74.14;101375.72;5044762;28;20213;-68
2021/09/14 04:11:52;;;;;;;0.73;0.63;;;;;;;7.28;74.15;101373.06;5030330;28;20234;-67
2021/09/14 04:14:25;;;;;;;0.80;0.70;;;;;;;7.27;73.79;101371.31;5027192;28;20226;-67
2021/09/14 04:16:54;;;;;;;0.70;0.57;;;;;;;7.20;74.11;101361.84;5028568;28;20544;-68
2021/09/14 04:19:22;;;;;;;0.97;0.70;;;;;;;7.08;73.55;101334.75;5023909;28;20692;-68
2021/09/14 04:21:52;;;;;;;1.70;0.63;;;;;;;7.27;73.87;101360.63;5041951;28;20842;-67
2021/09/14 04:24:26;;;;;;;0.43;0.43;;;;;;;7.25;73.71;101363.38;5026868;28;20341;-68
2021/09/14 04:26:54;;;;;;;0.87;0.50;;;;;;;7.26;73.62;101367.78;5024229;28;20290;-67
2021/09/14 04:29:23;;;;;;;4.60;0.57;;;;;;;7.27;73.76;101366.84;5035752;28;20203;-67
2021/09/14 04:31:51;;;;;;;2.17;0.80;;;;;;;7.29;74.25;101366.78;5022926;28;21000;-67
2021/09/14 04:34:19;;;;;;;0.47;0.47;;;;;;;7.31;73.71;101367.56;5039786;28;20215;-68
2021/09/14 04:36:49;;;;;;;0.50;0.50;;;;;;;7.32;74.00;101364.81;5025744;28;20209;-68
2021/09/14 04:39:18;;;;;;;3.00;0.50;;;;;;;7.33;73.72;101373.72;5025023;28;20882;-67
2021/09/14 04:41:48;;;;;;;0.63;0.50;;;;;;;7.32;73.70;101370.16;5025836;28;20748;-68
2021/09/14 04:44:18;;;;;;;1.27;0.43;;;;;;;7.34;74.18;101378.97;5040896;28;20193;-69
2021/09/14 04:46:47;;;;;;;0.63;0.63;;;;;;;7.33;73.95;101371.03;5041190;28;20288;-67
2021/09/14 04:49:17;;;;;;;0.60;0.60;;;;;;;7.37;74.22;101373.53;5042900;28;20377;-68
2021/09/14 04:51:45;;;;;;;0.70;0.70;;;;;;;7.39;74.22;101381.47;5029306;28;20278;-68
2021/09/14 04:54:13;;;;;;;1.17;0.60;;;;;;;7.41;74.00;101376.94;5026907;28;20735;-68
2021/09/14 04:56:42;;;;;;;0.70;0.70;;;;;;;7.47;73.80;101385.53;5044492;28;20620;-68
2021/09/14 04:59:10;;;;;;;3.30;0.60;;;;;;;7.54;74.30;101396.81;5044246;28;20202;-68
2021/09/14 05:01:38;;;;;;;491.43;204.57;;;;;;;7.52;74.32;101395.16;5027759;28;20595;-68
2021/09/14 05:04:07;;;;;;;4.33;3.93;;;;;;;7.43;74.21;101393.78;5027682;28;20393;-68
2021/09/14 05:06:35;;;;;;;4.07;3.77;;;;;;;7.45;74.06;101402.59;5043489;28;20209;-68
2021/09/14 05:09:04;;;;;;;5.00;3.70;;;;;;;7.50;74.60;101402.38;5042693;28;20262;-68
2021/09/14 05:11:39;;;;;;;5.57;2.60;;;;;;;7.53;74.99;101404.91;5042246;28;20199;-67
2021/09/14 05:14:08;;;;;;;6.60;2.33;;;;;;;7.53;74.89;101412.91;5026813;28;20244;-68
2021/09/14 05:16:47;;;;;;;1.77;1.50;;;;;;;7.58;75.43;101408.25;5044196;28;20271;-67
2021/09/14 05:19:37;;;;;;;3.73;3.20;;;;;;;7.69;74.99;101401.50;5018032;28;20250;-68
2021/09/14 05:22:06;;;;;;;5.03;2.17;;;;;;;7.78;74.66;101401.06;5023994;28;20215;-68
2021/09/14 05:24:34;;;;;;;1.50;1.40;;;;;;;7.85;74.41;101408.78;5024699;28;20213;-68
2021/09/14 05:27:03;;;;;;;2.10;0.93;;;;;;;7.87;74.05;101414.94;5024458;28;20211;-68
2021/09/14 05:29:32;;;;;;;2.23;2.03;;;;;;;7.89;74.05;101402.38;5033139;28;20218;-68
2021/09/14 05:32:00;;;;;;;5.23;1.63;;;;;;;8.04;73.96;101417.72;5025439;28;20681;-68
2021/09/14 05:34:28;;;;;;;2.87;2.00;;;;;;;7.92;73.80;101375.47;5041722;28;20290;-68
2021/09/14 05:36:57;;;;;;;2.37;1.17;;;;;;;8.18;75.16;101415.25;5023318;28;20198;-68
2021/09/14 05:39:25;;;;;;;3.57;1.50;;;;;;;8.21;75.18;101412.44;5025491;28;20209;-68
2021/09/14 05:41:56;;;;;;;1.23;1.10;;;;;;;8.25;75.43;101416.69;5025261;28;20229;-68
2021/09/14 05:44:24;;;;;;;1.20;1.10;;;;;;;8.42;74.74;101418.63;5026032;28;20202;-68
2021/09/14 05:46:54;;;;;;;1.17;1.07;;;;;;;8.54;74.49;101414.47;5044124;28;20202;-68
2021/09/14 05:49:22;;;;;;;2.97;0.80;;;;;;;8.67;74.29;101419.16;5044331;28;20210;-69
2021/09/14 05:51:50;;;;;;;1.30;0.90;;;;;;;8.84;74.08;101417.44;5013562;28;20202;-68
2021/09/14 05:54:20;;;;;;;1.07;0.97;;;;;;;9.01;73.75;101420.16;5043661;28;20640;-68
2021/09/14 05:56:48;;;;;;;0.90;0.90;;;;;;;9.14;74.15;101423.09;5044274;28;20256;-68
2021/09/14 05:59:17;;;;;;;0.70;0.70;;;;;;;9.32;74.40;101427.50;5027279;28;20233;-69
2021/09/14 06:01:45;;;;;;;1.03;0.70;;;;;;;9.47;74.06;101424.03;5044072;28;20679;-68
2021/09/14 06:04:15;;;;;;;1.90;0.97;;;;;;;9.59;74.64;101422.53;5043636;28;20603;-68
2021/09/14 06:06:43;;;;;;;1.60;0.90;;;;;;;9.73;74.21;101416.41;5043790;28;20212;-68
2021/09/14 06:09:13;;;;;;;1.37;0.90;;;;;;;9.80;75.74;101415.16;5026913;28;20206;-68
2021/09/14 06:11:42;;;;;;;1.47;1.10;;;;;;;9.85;75.77;101422.00;5044112;28;20220;-68
2021/09/14 06:14:10;;;;;;;0.73;0.73;;;;;;;9.99;76.25;101417.69;5043521;28;20207;-68
2021/09/14 06:16:38;;;;;;;1.00;1.00;;;;;;;10.08;76.10;101426.09;5028634;28;20202;-67
2021/09/14 06:19:06;;;;;;;3.37;1.10;;;;;;;10.16;76.13;101423.91;5043204;28;20572;-68
2021/09/14 06:21:38;;;;;;;3.20;1.30;;;;;;;10.21;76.42;101429.91;5042534;28;20479;-68
2021/09/14 06:24:09;;;;;;;1.00;1.00;;;;;;;10.34;76.35;101429.22;5025883;28;20574;-68
2021/09/14 06:26:37;;;;;;;1.37;1.27;;;;;;;10.47;76.88;101427.59;5026764;28;20486;-68
2021/09/14 06:29:09;;;;;;;2.00;1.17;;;;;;;10.58;77.65;101435.91;5026250;28;20295;-68
2021/09/14 06:31:37;;;;;;;1.30;1.20;;;;;;;10.76;77.15;101434.00;5043113;28;20203;-68
2021/09/14 06:34:06;;;;;;;1.07;0.80;;;;;;;10.92;77.80;101426.75;5019704;28;20215;-68
2021/09/14 06:36:34;;;;;;;0.90;0.90;;;;;;;11.10;77.77;101424.84;5035279;28;20263;-68
2021/09/14 06:39:04;;;;;;;1.80;1.10;;;;;;;11.31;76.96;101428.03;5026391;28;20218;-67
2021/09/14 06:41:38;;;;;;;1.20;0.90;;;;;;;11.55;76.33;101425.72;5027154;28;20206;-67
2021/09/14 06:44:09;;;;;;;1.03;0.93;;;;;;;11.64;76.31;101425.16;5043109;28;20805;-67
2021/09/14 06:46:53;;;;;;;0.83;0.83;;;;;;;11.68;75.91;101426.72;5043886;28;20204;-67
2021/09/14 06:49:21;;;;;;;1.90;1.13;;;;;;;11.77;75.95;101420.75;5043122;28;20206;-68
2021/09/14 06:51:49;;;;;;;1.03;0.97;;;;;;;11.86;75.86;101424.72;5041577;28;20254;-68
2021/09/14 06:54:19;;;;;;;0.73;0.73;;;;;;;11.94;75.88;101423.31;5025399;28;20875;-68
2021/09/14 06:56:47;;;;;;;0.80;0.80;;;;;;;12.14;75.17;101424.72;5027554;28;20247;-68
2021/09/14 06:59:15;;;;;;;0.87;0.80;;;;;;;12.36;75.19;101429.63;5042433;28;20278;-68
2021/09/14 07:01:43;;;;;;;0.63;0.63;;;;;;;12.10;74.02;101353.19;5025883;28;20605;-68
2021/09/14 07:04:11;;;;;;;1.03;0.90;;;;;;;12.81;74.37;101430.25;5024199;28;20199;-68
2021/09/14 07:06:39;;;;;;;2.23;0.80;;;;;;;13.06;73.27;101441.16;5024843;28;20672;-68
2021/09/14 07:09:08;;;;;;;2.13;0.77;;;;;;;13.23;72.79;101446.31;5026212;28;20204;-68
2021/09/14 07:11:37;;;;;;;1.23;1.00;;;;;;;13.31;71.76;101438.56;5025850;28;20224;-67
2021/09/14 07:14:05;;;;;;;0.90;0.90;;;;;;;13.37;71.22;101437.28;5026080;28;20196;-67
2021/09/14 07:16:33;;;;;;;0.80;0.80;;;;;;;13.64;71.13;101442.63;5025694;28;20275;-67
2021/09/14 07:19:02;;;;;;;0.80;0.77;;;;;;;13.88;70.49;101435.50;5043118;28;20235;-67
2021/09/14 07:21:31;;;;;;;0.90;0.90;;;;;;;14.03;69.63;101432.69;5025715;28;20233;-67
2021/09/14 07:23:59;;;;;;;1.13;0.83;;;;;;;14.15;68.45;101448.03;5026165;28;20213;-68
2021/09/14 07:26:27;;;;;;;0.83;0.83;;;;;;;14.33;68.81;101440.44;5027696;28;20264;-67
2021/09/14 07:28:56;;;;;;;0.73;0.70;;;;;;;14.57;67.59;101447.66;5027999;28;20205;-67
2021/09/14 07:31:24;;;;;;;0.50;0.50;;;;;;;14.78;67.72;101444.34;5025738;28;20748;-68
2021/09/14 07:33:52;;;;;;;833.10;639.10;;;;;;;14.51;65.27;101441.84;5027965;28;20268;-68
2021/09/14 07:36:20;;;;;;;0.77;0.60;;;;;;;14.47;66.32;101449.31;5027490;28;20221;-67
2021/09/14 07:38:49;;;;;;;1.00;0.70;;;;;;;14.60;65.42;101444.72;5031234;28;20193;-67
2021/09/14 07:41:17;;;;;;;1.73;0.60;;;;;;;14.62;66.43;101425.69;5030725;28;20282;-67
2021/09/14 07:43:45;;;;;;;0.60;0.60;;;;;;;14.79;66.40;101448.78;5026870;28;20210;-68
2021/09/14 07:46:14;;;;;;;0.90;0.90;;;;;;;14.83;65.17;101450.28;5030105;28;20195;-67
2021/09/14 07:48:42;;;;;;;2.67;0.90;;;;;;;14.87;65.12;101447.22;5017210;28;20207;-69
2021/09/14 07:51:10;;;;;;;4.10;0.90;;;;;;;14.91;65.14;101451.44;5030793;28;20202;-69
2021/09/14 07:53:38;;;;;;;0.60;0.60;;;;;;;14.94;64.92;101453.03;5030419;28;20199;-69
2021/09/14 07:56:06;;;;;;;0.70;0.70;;;;;;;15.04;65.02;101447.81;5029189;28;20261;-69
2021/09/14 07:58:34;;;;;;;2.17;0.77;;;;;;;15.08;65.25;101454.72;5031047;28;20738;-69
2021/09/14 08:01:02;;;;;;;1.77;0.83;;;;;;;15.04;65.34;101470.34;5030753;28;20229;-66
2021/09/14 08:03:33;;;;;;;0.70;0.70;;;;;;;15.06;64.54;101454.84;5030532;28;20191;-69
2021/09/14 08:06:05;;;;;;;0.53;0.53;;;;;;;15.17;64.44;101464.84;5029558;28;20195;-68
2021/09/14 08:08:33;;;;;;;2.50;1.10;;;;;;;15.27;63.82;101465.00;5030723;28;20225;-68
2021/09/14 08:11:02;;;;;;;0.70;0.70;;;;;;;15.31;64.37;101472.81;5030723;28;20290;-68
2021/09/14 08:13:37;;;;;;;2.30;1.03;;;;;;;15.34;64.44;101475.28;5014834;28;20233;-68
2021/09/14 08:16:05;;;;;;;0.90;0.90;;;;;;;15.51;63.72;101474.81;5028901;28;20233;-68
2021/09/14 08:18:35;;;;;;;1.10;0.90;;;;;;;15.47;63.87;101473.34;5029234;28;20540;-68
2021/09/14 08:21:03;;;;;;;0.70;0.70;;;;;;;15.30;63.98;101437.69;5030513;28;20664;-69
2021/09/14 08:23:32;;;;;;;1.10;1.00;;;;;;;15.68;63.76;101468.16;5016268;28;20200;-68
2021/09/14 08:26:01;;;;;;;0.87;0.80;;;;;;;15.68;63.16;101470.00;5017105;28;20241;-68
2021/09/14 08:28:30;;;;;;;3.43;1.00;;;;;;;15.73;64.08;101465.94;5027594;28;20210;-69
2021/09/14 08:30:58;;;;;;;2.70;0.80;;;;;;;15.90;63.79;101458.34;5019936;28;20519;-69
2021/09/14 08:33:27;;;;;;;1.87;0.70;;;;;;;15.95;63.33;101439.91;5025848;28;20256;-68
2021/09/14 08:35:57;;;;;;;2.17;1.00;;;;;;;16.23;62.50;101469.25;5026755;28;20430;-68
2021/09/14 08:38:25;;;;;;;2.83;0.90;;;;;;;16.31;62.05;101465.91;5043976;28;20210;-68
2021/09/14 08:40:54;;;;;;;0.80;0.73;;;;;;;16.52;62.32;101474.13;5029451;28;20199;-68
2021/09/14 08:43:22;;;;;;;1.10;1.00;;;;;;;16.36;61.00;101450.13;5029203;28;20673;-68
2021/09/14 08:45:51;;;;;;;0.80;0.80;;;;;;;16.68;60.79;101478.25;5028811;28;20649;-68
2021/09/14 08:48:27;;;;;;;0.67;0.67;;;;;;;16.75;60.24;101484.00;5029022;28;20420;-68
2021/09/14 08:50:56;;;;;;;1.43;0.90;;;;;;;16.55;59.85;101471.22;5029326;28;20233;-68
2021/09/14 08:53:25;;;;;;;1.40;1.07;;;;;;;16.60;60.78;101474.41;5029072;28;20525;-68
2021/09/14 08:55:53;;;;;;;2.47;1.00;;;;;;;16.53;60.15;101478.56;5029307;28;20226;-66
2021/09/14 08:58:21;;;;;;;1.20;1.10;;;;;;;16.40;60.03;101468.72;5026307;28;20758;-68
2021/09/14 09:00:51;;;;;;;1.10;1.00;;;;;;;16.05;60.19;101403.81;5029024;28;20645;-67
2021/09/14 09:03:23;;;;;;;1.00;0.90;;;;;;;16.46;60.37;101468.22;5028533;28;20207;-67
2021/09/14 09:05:51;;;;;;;2.00;1.10;;;;;;;16.63;60.24;101461.44;5029247;28;20203;-66
2021/09/14 09:08:23;;;;;;;5.33;1.10;;;;;;;16.77;59.44;101466.63;5028500;28;20202;-66
2021/09/14 09:11:05;;;;;;;2.63;1.23;;;;;;;16.81;57.97;101472.66;5028414;28;20213;-66
2021/09/14 09:13:34;;;;;;;6.20;1.17;;;;;;;16.69;56.53;101473.69;5029227;28;20592;-66
2021/09/14 09:16:07;;;;;;;1.40;0.80;;;;;;;16.63;55.41;101471.44;5026560;28;20717;-66
2021/09/14 09:18:35;;;;;;;3.60;1.07;;;;;;;16.58;54.11;101460.97;5027625;28;20744;-67
2021/09/14 09:21:04;;;;;;;2.97;0.90;;;;;;;16.87;54.43;101477.59;5021723;28;20198;-67
2021/09/14 09:23:33;;;;;;;1.07;0.80;;;;;;;16.84;51.60;101472.44;5025295;28;20657;-67
2021/09/14 09:26:06;;;;;;;2.20;1.10;;;;;;;16.75;52.92;101427.91;5027733;28;20199;-67
2021/09/14 09:28:35;;;;;;;2.00;1.03;;;;;;;17.27;54.43;101468.84;5029256;28;20191;-67
2021/09/14 09:31:09;;;;;;;3.90;1.30;;;;;;;17.35;52.27;101469.03;5029085;28;20273;-67
2021/09/14 09:33:38;;;;;;;2.47;1.60;;;;;;;17.53;54.56;101477.50;5023159;28;20207;-68
2021/09/14 09:36:08;;;;;;;3.43;1.43;;;;;;;17.59;54.21;101464.25;5024763;28;20206;-68
2021/09/14 09:38:51;;;;;;;4.60;1.80;;;;;;;17.62;52.84;101463.13;5022450;28;20310;-68
2021/09/14 09:41:19;;;;;;;2.77;1.43;;;;;;;17.84;53.64;101459.44;5024302;28;20284;-68
2021/09/14 09:43:48;;;;;;;1.73;1.50;;;;;;;17.99;53.83;101455.38;5024800;28;20260;-68
2021/09/14 09:46:21;;;;;;;2.87;1.23;;;;;;;18.14;53.81;101464.94;5028695;28;20203;-68
2021/09/14 09:48:50;;;;;;;1.93;1.23;;;;;;;18.28;54.46;101467.28;5028575;28;20199;-68
2021/09/14 09:51:18;;;;;;;1.90;1.40;;;;;;;18.39;53.83;101468.19;5026986;28;20199;-68
2021/09/14 09:53:48;;;;;;;1.27;1.10;;;;;;;18.41;53.72;101463.47;5028795;28;20539;-67
2021/09/14 09:56:16;;;;;;;6.93;1.63;;;;;;;18.47;53.09;101460.22;5028217;28;20206;-68
2021/09/14 09:58:45;;;;;;;2.30;1.40;;;;;;;18.56;53.58;101462.09;5016024;28;20264;-67
2021/09/14 10:01:17;;;;;;;1.40;1.30;;;;;;;18.70;52.74;101461.75;5025656;28;20194;-68
2021/09/14 10:03:52;;;;;;;2.87;1.47;;;;;;;18.60;52.40;101437.19;5019438;28;20190;-68
2021/09/14 10:06:22;;;;;;;2.13;1.27;;;;;;;18.72;51.33;101465.19;5023226;28;20241;-68
2021/09/14 10:08:55;;;;;;;2.53;1.60;;;;;;;18.87;51.96;101471.97;5023069;28;20835;-67
2021/09/14 10:11:27;;;;;;;3.97;1.30;;;;;;;18.89;51.86;101472.69;5024534;28;20732;-68
2021/09/14 10:14:07;;;;;;;4.57;1.50;;;;;;;18.72;51.49;101424.38;5013085;28;20199;-67
2021/09/14 10:16:44;;;;;;;1.93;1.10;;;;;;;18.94;50.02;101477.69;5022606;28;20225;-68
2021/09/14 10:19:14;;;;;;;1.43;1.10;;;;;;;18.92;49.08;101476.97;5025483;28;20238;-67
2021/09/14 10:21:43;;;;;;;2.10;1.50;;;;;;;18.90;48.75;101485.28;5025603;28;20518;-68
2021/09/14 10:24:23;;;;;;;1.60;1.50;;;;;;;18.48;47.77;101427.41;5011001;28;20253;-67
2021/09/14 10:27:03;;;;;;;3.30;1.63;;;;;;;18.89;48.83;101478.13;5014778;28;20233;-67
2021/09/14 10:29:32;;;;;;;1.30;1.20;;;;;;;18.34;47.92;101395.16;5015126;28;20186;-65
2021/09/14 10:32:01;;;;;;;5.90;1.57;;;;;;;19.11;49.05;101481.59;5027758;28;20203;-66
2021/09/14 10:34:30;;;;;;;4.23;1.60;;;;;;;19.17;47.49;101478.31;5027243;28;20352;-68
2021/09/14 10:37:03;;;;;;;2.23;1.63;;;;;;;19.25;46.91;101470.28;5027505;28;20233;-67
2021/09/14 10:39:36;;;;;;;2.33;1.50;;;;;;;19.45;47.50;101473.88;5022051;28;20199;-68
2021/09/14 10:42:16;;;;;;;3.47;1.63;;;;;;;19.67;48.27;101467.31;5020453;28;20658;-68
2021/09/14 10:44:46;;;;;;;1.83;1.70;;;;;;;19.67;47.94;101472.78;5013736;28;20724;-67
2021/09/14 10:47:17;;;;;;;1.70;1.60;;;;;;;19.78;47.58;101458.97;5025693;28;20187;-67
2021/09/14 10:49:48;;;;;;;2.80;1.70;;;;;;;20.06;48.28;101465.38;5023995;28;20203;-68
2021/09/14 10:52:19;;;;;;;5.57;1.63;;;;;;;20.30;48.14;101470.34;5023994;28;20206;-68
2021/09/14 10:54:50;;;;;;;3.50;1.50;;;;;;;20.42;46.76;101470.03;5020232;28;20615;-68
2021/09/14 10:57:21;;;;;;;2.07;1.80;;;;;;;20.17;45.87;101471.50;5024610;28;20272;-68
2021/09/14 10:59:51;;;;;;;4.67;1.47;;;;;;;20.27;45.08;101455.13;5027159;28;20199;-72
2021/09/14 11:02:23;;;;;;;4.10;1.50;;;;;;;20.68;45.62;101474.78;5022196;28;20217;-72
2021/09/14 11:04:52;;;;;;;1.53;1.37;;;;;;;20.83;45.39;101469.69;5019861;28;20665;-72
2021/09/14 11:07:22;;;;;;;2.03;1.60;;;;;;;20.94;44.43;101470.34;5028299;28;20190;-72
2021/09/14 11:09:55;;;;;;;2.07;1.60;;;;;;;21.04;44.04;101454.72;5039631;28;20680;-72
2021/09/14 11:12:24;;;;;;;1.60;1.50;;;;;;;21.16;44.40;101469.03;5046247;28;20189;-71
2021/09/14 11:14:53;;;;;;;2.77;1.60;;;;;;;20.84;44.42;101412.19;5038626;28;20276;-71
2021/09/14 11:17:26;;;;;;;2.03;1.40;;;;;;;21.31;44.52;101467.50;5034432;28;20221;-72
2021/09/14 11:19:55;;;;;;;1.37;1.10;;;;;;;21.43;44.47;101465.41;5043045;28;20236;-72
2021/09/14 11:22:31;;;;;;;5.37;1.20;;;;;;;21.66;42.74;101466.63;5044905;28;20204;-71
2021/09/14 11:25:01;;;;;;;1.03;0.70;;;;;;;21.85;40.96;101473.78;5041865;28;20202;-72
2021/09/14 11:27:30;;;;;;;2.20;0.87;;;;;;;21.87;41.81;101471.75;5028409;28;20210;-72
2021/09/14 11:29:59;;;;;;;0.60;0.60;;;;;;;21.64;41.61;101445.94;5028094;28;20206;-72
2021/09/14 11:32:28;;;;;;;1.37;0.70;;;;;;;21.65;42.80;101409.38;5029069;28;20194;-72
2021/09/14 11:34:56;;;;;;;1.23;0.70;;;;;;;22.11;42.89;101465.63;5027328;28;20245;-72
2021/09/14 11:37:28;;;;;;;0.50;0.50;;;;;;;22.03;41.40;101462.78;5022519;28;20214;-72
2021/09/14 11:39:58;;;;;;;0.60;0.60;;;;;;;21.52;39.29;101449.94;5020342;28;20729;-72
2021/09/14 11:42:28;;;;;;;0.57;0.57;;;;;;;21.92;41.02;101444.78;5022915;28;20289;-72
2021/09/14 11:45:06;;;;;;;1.43;0.80;;;;;;;22.26;40.46;101463.16;5023652;28;20203;-73
2021/09/14 11:47:43;;;;;;;0.50;0.50;;;;;;;21.88;40.29;101420.66;5021831;28;20198;-72
2021/09/14 11:50:23;;;;;;;0.50;0.50;;;;;;;22.17;40.46;101464.13;5024751;28;20301;-72
2021/09/14 11:53:02;;;;;;;2.77;1.00;;;;;;;22.32;39.95;101451.53;5027970;28;20197;-72
2021/09/14 11:55:31;;;;;;;0.80;0.77;;;;;;;22.59;41.62;101458.69;5026126;28;20330;-72
2021/09/14 11:58:01;;;;;;;1.70;0.90;;;;;;;22.22;41.35;101424.31;5029229;28;20681;-72
2021/09/14 12:00:37;;;;;;;1.63;0.80;;;;;;;22.44;37.15;101454.88;5028968;28;20206;-73
2021/09/14 12:03:05;;;;;;;1.50;0.80;;;;;;;22.35;40.27;101453.09;5028776;28;22145;-72
2021/09/14 12:05:34;;;;;;;0.60;0.60;;;;;;;22.59;41.41;101445.84;5025788;28;20626;-72
2021/09/14 12:08:09;;;;;;;1.10;0.90;;;;;;;22.62;41.48;101409.91;5024572;28;20633;-72
2021/09/14 12:10:47;;;;;;;0.90;0.90;;;;;;;22.91;41.27;101442.41;5039397;28;20201;-72
2021/09/14 12:13:18;;;;;;;0.87;0.80;;;;;;;23.14;41.90;101441.78;5024432;28;20199;-72
2021/09/14 12:15:48;;;;;;;4.97;1.33;;;;;;;22.93;40.63;101440.34;5027287;28;20203;-72
2021/09/14 12:18:17;;;;;;;1.00;0.90;;;;;;;23.06;41.09;101428.91;5023459;28;20245;-72
2021/09/14 12:20:46;;;;;;;1.13;0.83;;;;;;;22.58;37.95;101407.69;5043206;28;20677;-72
2021/09/14 12:23:15;;;;;;;0.53;0.53;;;;;;;22.30;38.81;101426.22;5020922;28;20241;-72
2021/09/14 12:25:44;;;;;;;0.97;0.77;;;;;;;22.69;40.05;101436.66;5019805;28;20210;-71
2021/09/14 12:28:12;;;;;;;1.13;1.00;;;;;;;22.47;38.53;101422.53;5018524;28;20203;-72
2021/09/14 12:30:41;;;;;;;0.80;0.80;;;;;;;22.49;39.46;101431.44;5022607;28;20202;-72
2021/09/14 12:33:10;;;;;;;0.70;0.70;;;;;;;22.14;39.34;101415.19;5027507;28;20199;-72